Kendall Alyse — WDE4829 — position and weather

sailwx.info

Track history (hours):
 
Tides and Currents Weather Stations Pressure Air Temp Water Temp Dewpoint Dewpoint Depression Visibility Wind Speed Wind Dir Waves Ship Positions

Kendall Alyse

Owner: The Tug Kendall Alyse, L.L.C., Sugar Land, TX. More information available from US FCC via Universal Licensing System and Coast Guard Vessel Documentation Center.

Last reported at 2017-Oct-18 03:19 UTC. Time now 2017-Oct-18 11:21 UTC.
Position N 29°46' W 095°06'.

Length 20 m.

MMSI: 357358340.

Date/timePositionNaut miles runAvg speedWind from/ knotsBaromVisibWave heightAir tempDewpointWater temp
2017-Oct-18 03:19N 29°46' W 095°06'1 3.3
2017-Oct-18 02:57N 29°46' W 095°05'1 0.7
2017-Oct-18 01:31N 29°47' W 095°04'0 6.2
2017-Oct-18 01:27N 29°46' W 095°05'1 0.4
2017-Oct-17 22:05N 29°46' W 095°06'2 4.1
2017-Oct-17 21:43N 29°46' W 095°04'2 6.5
2017-Oct-17 21:28N 29°44' W 095°03'1 0.7
2017-Oct-17 20:40N 29°44' W 095°03'0 0.5
2017-Oct-17 20:13N 29°44' W 095°03'0 0.6
2017-Oct-17 19:58N 29°44' W 095°03'0 0.3
2017-Oct-17 19:30N 29°44' W 095°03'0 0.0
2017-Oct-17 18:58N 29°44' W 095°03'0 0.0
2017-Oct-17 18:29N 29°44' W 095°03'3 0.3
2017-Oct-17 06:49N 29°46' W 095°06'0 0.3
2017-Oct-17 05:16N 29°46' W 095°06'1 4.0
2017-Oct-17 05:00N 29°46' W 095°05'2 1.8
2017-Oct-17 04:03N 29°47' W 095°04'0 0.9
2017-Oct-17 03:33N 29°47' W 095°04'2 5.4
2017-Oct-17 03:14N 29°46' W 095°05'1 6.4
2017-Oct-17 03:00N 29°44' W 095°07'3 5.6
2017-Oct-17 02:29N 29°45' W 095°10'3 5.5
2017-Oct-17 02:00N 29°44' W 095°13'1 2.5
2017-Oct-17 01:31N 29°43' W 095°14'0 0.0
2017-Oct-17 01:00N 29°43' W 095°14'0 0.0
2017-Oct-17 00:30N 29°43' W 095°14'0 0.0
2017-Oct-17 00:00N 29°43' W 095°14'0 0.0
2017-Oct-16 23:30N 29°43' W 095°14'0 0.0
2017-Oct-16 23:00N 29°43' W 095°14'0 0.0
2017-Oct-16 22:30N 29°43' W 095°14'0 0.0
2017-Oct-16 22:01N 29°43' W 095°14'0 0.0
2017-Oct-16 21:30N 29°43' W 095°14'0 0.0
2017-Oct-16 21:00N 29°43' W 095°14'0 0.0
2017-Oct-16 20:30N 29°43' W 095°14'0 0.0
2017-Oct-16 20:00N 29°43' W 095°14'0 0.0
2017-Oct-16 19:29N 29°43' W 095°14'0 0.0
2017-Oct-16 19:01N 29°43' W 095°14'0 0.0
2017-Oct-16 18:28N 29°43' W 095°14'0 0.0
2017-Oct-16 18:00N 29°43' W 095°14'0 0.0
2017-Oct-16 17:30N 29°43' W 095°14'0 0.0
2017-Oct-16 17:00N 29°43' W 095°14'0 0.0
2017-Oct-16 16:29N 29°43' W 095°14'0 0.0
2017-Oct-16 16:00N 29°43' W 095°14'4 0.5
2017-Oct-16 07:39N 29°45' W 095°10'1 5.3
2017-Oct-16 07:26N 29°44' W 095°09'2 5.6
2017-Oct-16 07:00N 29°45' W 095°06'2 0.3
2017-Oct-16 00:45N 29°46' W 095°06'1 0.0
2017-Oct-14 22:53N 29°46' W 095°05'4 4.4
2017-Oct-14 21:57N 29°45' W 095°10'0 0.4
2017-Oct-14 21:25N 29°45' W 095°10'1 2.3
2017-Oct-14 20:59N 29°44' W 095°09'2 2.8
2017-Oct-14 20:19N 29°44' W 095°07'1 2.9
2017-Oct-14 19:50N 29°45' W 095°06'3 3.0
2017-Oct-14 18:59N 29°47' W 095°04'2 0.3
2017-Oct-14 10:38N 29°46' W 095°06'1 4.2
2017-Oct-14 10:30N 29°46' W 095°05'1 0.8
2017-Oct-14 08:36N 29°45' W 095°06'0 4.4
2017-Oct-14 08:30N 29°44' W 095°07'8 2.6
2017-Oct-14 05:17N 29°43' W 095°16'7 4.3
2017-Oct-14 03:45N 29°44' W 095°09'1 6.0
2017-Oct-14 03:30N 29°44' W 095°07'2 0.3
2017-Oct-13 21:27N 29°46' W 095°05'1 0.1
2017-Oct-13 12:07N 29°46' W 095°05'1 4.6
2017-Oct-13 11:56N 29°45' W 095°06'1 2.8
2017-Oct-13 11:28N 29°44' W 095°07'4 6.5
2017-Oct-13 10:49N 29°45' W 095°12'2 6.3
2017-Oct-13 10:30N 29°44' W 095°13'3 5.7
2017-Oct-13 09:59N 29°44' W 095°17'0 0.3
2017-Oct-13 09:24N 29°44' W 095°17'2 5.0
2017-Oct-13 08:59N 29°43' W 095°14'3 5.2
2017-Oct-13 08:28N 29°45' W 095°12'2 5.2
2017-Oct-13 08:00N 29°44' W 095°09'3 5.3
2017-Oct-13 07:25N 29°45' W 095°06'0 0.0
2017-Oct-13 03:37N 29°46' W 095°06'0 3.6
2017-Oct-13 03:30N 29°46' W 095°05'2 1.3
2017-Oct-13 01:57N 29°47' W 095°04'2 2.6
2017-Oct-13 01:14N 29°46' W 095°04'2 6.8
2017-Oct-13 01:00N 29°44' W 095°03'3 5.9
2017-Oct-13 00:30N 29°42' W 095°01'3 5.4
2017-Oct-13 00:00N 29°41' W 094°58'2 4.3
2017-Oct-12 23:28N 29°41' W 094°55'1 2.2
2017-Oct-12 22:57N 29°42' W 094°56'1 0.7
2017-Oct-12 21:51N 29°43' W 094°56'1 2.0
2017-Oct-12 21:16N 29°42' W 094°55'1 2.3
2017-Oct-12 21:00N 29°41' W 094°55'2 3.4
2017-Oct-12 20:30N 29°41' W 094°57'3 5.2
2017-Oct-12 20:00N 29°42' W 094°60'3 5.5
2017-Oct-12 19:28N 29°44' W 095°02'4 0.3
2017-Oct-12 03:45N 29°46' W 095°06'2 4.4
2017-Oct-12 03:19N 29°47' W 095°04'0 0.7
2017-Oct-12 02:58N 29°47' W 095°04'3 0.4
2017-Oct-11 20:57N 29°45' W 095°06'3 6.4
2017-Oct-11 20:29N 29°44' W 095°09'2 3.9
2017-Oct-11 19:58N 29°45' W 095°12'2 4.2
2017-Oct-11 19:28N 29°44' W 095°09'3 5.4
2017-Oct-11 18:59N 29°45' W 095°06'9 0.5
2017-Oct-11 00:00N 29°39' W 094°58'4 7.3
2017-Oct-10 23:30N 29°42' W 095°01'6 0.7
2017-Oct-10 14:00N 29°46' W 095°06'0 0.0
2017-Oct-10 12:41N 29°46' W 095°06'0 0.0
2017-Oct-10 12:20N 29°46' W 095°06'0 0.0
2017-Oct-10 11:57N 29°46' W 095°06'0 0.0
2017-Oct-10 11:20N 29°46' W 095°06'0 0.0
2017-Oct-10 11:00N 29°46' W 095°06'0 0.0
2017-Oct-10 10:30N 29°46' W 095°06'0 0.0
2017-Oct-10 10:00N 29°46' W 095°06'0 0.0
2017-Oct-10 09:27N 29°46' W 095°06'0 0.0
2017-Oct-10 08:51N 29°46' W 095°06'0 0.0
2017-Oct-10 08:20N 29°46' W 095°06'0 0.0
2017-Oct-10 08:00N 29°46' W 095°06'0 0.0
2017-Oct-10 07:23N 29°46' W 095°06'0 0.0
2017-Oct-10 06:58N 29°46' W 095°06'0 0.0
2017-Oct-10 06:30N 29°46' W 095°06'0 0.0
2017-Oct-10 05:57N 29°46' W 095°06'0 0.0
2017-Oct-10 05:29N 29°46' W 095°06'2 0.5
2017-Oct-10 02:09N 29°45' W 095°06'1 6.0
2017-Oct-10 01:56N 29°44' W 095°08'3 5.9
2017-Oct-10 01:30N 29°45' W 095°11'1 2.0
2017-Oct-10 01:01N 29°45' W 095°12'1 1.9
2017-Oct-10 00:30N 29°45' W 095°11'3 5.6
2017-Oct-10 00:00N 29°44' W 095°08'3 2.1
2017-Oct-09 22:31N 29°46' W 095°05'0 4.4
2017-Oct-09 22:26N 29°46' W 095°04'3 5.6
2017-Oct-09 22:00N 29°44' W 095°02'1 1.9
2017-Oct-09 21:29N 29°44' W 095°01'0 0.5
2017-Oct-09 20:58N 29°44' W 095°01'0 0.5
2017-Oct-09 20:27N 29°44' W 095°01'1 1.0
2017-Oct-09 19:53N 29°43' W 095°01'1 1.2
2017-Oct-09 19:22N 29°44' W 095°01'0 0.0
2017-Oct-09 18:56N 29°44' W 095°01'0 0.0
2017-Oct-09 12:46N 29°44' W 095°01'0 0.0
2017-Oct-09 12:27N 29°44' W 095°01'0 0.0
2017-Oct-09 09:36N 29°44' W 095°01'0 0.0
2017-Oct-09 08:52N 29°44' W 095°01'0 0.0
2017-Oct-09 08:22N 29°44' W 095°01'0 0.0
2017-Oct-09 07:31N 29°44' W 095°01'0 0.0
2017-Oct-09 07:26N 29°44' W 095°01'0 0.0
2017-Oct-09 01:31N 29°44' W 095°01'0 0.3
2017-Oct-09 01:30N 29°44' W 095°01'0 0.2
2017-Oct-09 00:39N 29°44' W 095°01'0 3.0
2017-Oct-09 00:30N 29°43' W 095°01'0 0.0
2017-Oct-08 23:38N 29°43' W 095°01'1 4.6
2017-Oct-08 23:20N 29°44' W 095°03'3 0.6
2017-Oct-08 17:56N 29°46' W 095°05'1 1.8
2017-Oct-08 17:12N 29°47' W 095°04'1 5.5
2017-Oct-08 17:00N 29°46' W 095°05'3 5.9
2017-Oct-08 16:30N 29°44' W 095°02'1 1.6
2017-Oct-08 16:00N 29°44' W 095°01'0 0.0
2017-Oct-08 14:26N 29°44' W 095°01'0 0.0
2017-Oct-08 13:55N 29°44' W 095°01'  
Track history (hours):
 
Tides and Currents Weather Stations Pressure Air Temp Water Temp Dewpoint Dewpoint Depression Visibility Wind Speed Wind Dir Waves Ship Positions

Kendall Alyse

Owner: The Tug Kendall Alyse, L.L.C., Sugar Land, TX. More information available from US FCC via Universal Licensing System and Coast Guard Vessel Documentation Center.

Last reported at 2017-Oct-18 03:19 UTC. Time now 2017-Oct-18 11:21 UTC.
Position N 29°46' W 095°06'.

Length 20 m.

MMSI: 357358340.

Date/timePositionNaut miles runAvg speedWind from/ knotsBaromVisibWave heightAir tempDewpointWater temp
2017-Oct-18 03:19N 29°46' W 095°06'1 3.3
2017-Oct-18 02:57N 29°46' W 095°05'1 0.7
2017-Oct-18 01:31N 29°47' W 095°04'0 6.2
2017-Oct-18 01:27N 29°46' W 095°05'1 0.4
2017-Oct-17 22:05N 29°46' W 095°06'2 4.1
2017-Oct-17 21:43N 29°46' W 095°04'2 6.5
2017-Oct-17 21:28N 29°44' W 095°03'1 0.7
2017-Oct-17 20:40N 29°44' W 095°03'0 0.5
2017-Oct-17 20:13N 29°44' W 095°03'0 0.6
2017-Oct-17 19:58N 29°44' W 095°03'0 0.3
2017-Oct-17 19:30N 29°44' W 095°03'0 0.0
2017-Oct-17 18:58N 29°44' W 095°03'0 0.0
2017-Oct-17 18:29N 29°44' W 095°03'3 0.3
2017-Oct-17 06:49N 29°46' W 095°06'0 0.3
2017-Oct-17 05:16N 29°46' W 095°06'1 4.0
2017-Oct-17 05:00N 29°46' W 095°05'2 1.8
2017-Oct-17 04:03N 29°47' W 095°04'0 0.9
2017-Oct-17 03:33N 29°47' W 095°04'2 5.4
2017-Oct-17 03:14N 29°46' W 095°05'1 6.4
2017-Oct-17 03:00N 29°44' W 095°07'3 5.6
2017-Oct-17 02:29N 29°45' W 095°10'3 5.5
2017-Oct-17 02:00N 29°44' W 095°13'1 2.5
2017-Oct-17 01:31N 29°43' W 095°14'0 0.0
2017-Oct-17 01:00N 29°43' W 095°14'0 0.0
2017-Oct-17 00:30N 29°43' W 095°14'0 0.0
2017-Oct-17 00:00N 29°43' W 095°14'0 0.0
2017-Oct-16 23:30N 29°43' W 095°14'0 0.0
2017-Oct-16 23:00N 29°43' W 095°14'0 0.0
2017-Oct-16 22:30N 29°43' W 095°14'0 0.0
2017-Oct-16 22:01N 29°43' W 095°14'0 0.0
2017-Oct-16 21:30N 29°43' W 095°14'0 0.0
2017-Oct-16 21:00N 29°43' W 095°14'0 0.0
2017-Oct-16 20:30N 29°43' W 095°14'0 0.0
2017-Oct-16 20:00N 29°43' W 095°14'0 0.0
2017-Oct-16 19:29N 29°43' W 095°14'0 0.0
2017-Oct-16 19:01N 29°43' W 095°14'0 0.0
2017-Oct-16 18:28N 29°43' W 095°14'0 0.0
2017-Oct-16 18:00N 29°43' W 095°14'0 0.0
2017-Oct-16 17:30N 29°43' W 095°14'0 0.0
2017-Oct-16 17:00N 29°43' W 095°14'0 0.0
2017-Oct-16 16:29N 29°43' W 095°14'0 0.0
2017-Oct-16 16:00N 29°43' W 095°14'4 0.5
2017-Oct-16 07:39N 29°45' W 095°10'1 5.3
2017-Oct-16 07:26N 29°44' W 095°09'2 5.6
2017-Oct-16 07:00N 29°45' W 095°06'2 0.3
2017-Oct-16 00:45N 29°46' W 095°06'1 0.0
2017-Oct-14 22:53N 29°46' W 095°05'4 4.4
2017-Oct-14 21:57N 29°45' W 095°10'0 0.4
2017-Oct-14 21:25N 29°45' W 095°10'1 2.3
2017-Oct-14 20:59N 29°44' W 095°09'2 2.8
2017-Oct-14 20:19N 29°44' W 095°07'1 2.9
2017-Oct-14 19:50N 29°45' W 095°06'3 3.0
2017-Oct-14 18:59N 29°47' W 095°04'2 0.3
2017-Oct-14 10:38N 29°46' W 095°06'1 4.2
2017-Oct-14 10:30N 29°46' W 095°05'1 0.8
2017-Oct-14 08:36N 29°45' W 095°06'0 4.4
2017-Oct-14 08:30N 29°44' W 095°07'8 2.6
2017-Oct-14 05:17N 29°43' W 095°16'7 4.3
2017-Oct-14 03:45N 29°44' W 095°09'1 6.0
2017-Oct-14 03:30N 29°44' W 095°07'2 0.3
2017-Oct-13 21:27N 29°46' W 095°05'1 0.1
2017-Oct-13 12:07N 29°46' W 095°05'1 4.6
2017-Oct-13 11:56N 29°45' W 095°06'1 2.8
2017-Oct-13 11:28N 29°44' W 095°07'4 6.5
2017-Oct-13 10:49N 29°45' W 095°12'2 6.3
2017-Oct-13 10:30N 29°44' W 095°13'3 5.7
2017-Oct-13 09:59N 29°44' W 095°17'0 0.3
2017-Oct-13 09:24N 29°44' W 095°17'2 5.0
2017-Oct-13 08:59N 29°43' W 095°14'3 5.2
2017-Oct-13 08:28N 29°45' W 095°12'2 5.2
2017-Oct-13 08:00N 29°44' W 095°09'3 5.3
2017-Oct-13 07:25N 29°45' W 095°06'0 0.0
2017-Oct-13 03:37N 29°46' W 095°06'0 3.6
2017-Oct-13 03:30N 29°46' W 095°05'2 1.3
2017-Oct-13 01:57N 29°47' W 095°04'2 2.6
2017-Oct-13 01:14N 29°46' W 095°04'2 6.8
2017-Oct-13 01:00N 29°44' W 095°03'3 5.9
2017-Oct-13 00:30N 29°42' W 095°01'3 5.4
2017-Oct-13 00:00N 29°41' W 094°58'2 4.3
2017-Oct-12 23:28N 29°41' W 094°55'1 2.2
2017-Oct-12 22:57N 29°42' W 094°56'1 0.7
2017-Oct-12 21:51N 29°43' W 094°56'1 2.0
2017-Oct-12 21:16N 29°42' W 094°55'1 2.3
2017-Oct-12 21:00N 29°41' W 094°55'2 3.4
2017-Oct-12 20:30N 29°41' W 094°57'3 5.2
2017-Oct-12 20:00N 29°42' W 094°60'3 5.5
2017-Oct-12 19:28N 29°44' W 095°02'4 0.3
2017-Oct-12 03:45N 29°46' W 095°06'2 4.4
2017-Oct-12 03:19N 29°47' W 095°04'0 0.7
2017-Oct-12 02:58N 29°47' W 095°04'3 0.4
2017-Oct-11 20:57N 29°45' W 095°06'3 6.4
2017-Oct-11 20:29N 29°44' W 095°09'2 3.9
2017-Oct-11 19:58N 29°45' W 095°12'2 4.2
2017-Oct-11 19:28N 29°44' W 095°09'3 5.4
2017-Oct-11 18:59N 29°45' W 095°06'9 0.5
2017-Oct-11 00:00N 29°39' W 094°58'4 7.3
2017-Oct-10 23:30N 29°42' W 095°01'6 0.7
2017-Oct-10 14:00N 29°46' W 095°06'0 0.0
2017-Oct-10 12:41N 29°46' W 095°06'0 0.0
2017-Oct-10 12:20N 29°46' W 095°06'0 0.0
2017-Oct-10 11:57N 29°46' W 095°06'0 0.0
2017-Oct-10 11:20N 29°46' W 095°06'0 0.0
2017-Oct-10 11:00N 29°46' W 095°06'0 0.0
2017-Oct-10 10:30N 29°46' W 095°06'0 0.0
2017-Oct-10 10:00N 29°46' W 095°06'0 0.0
2017-Oct-10 09:27N 29°46' W 095°06'0 0.0
2017-Oct-10 08:51N 29°46' W 095°06'0 0.0
2017-Oct-10 08:20N 29°46' W 095°06'0 0.0
2017-Oct-10 08:00N 29°46' W 095°06'0 0.0
2017-Oct-10 07:23N 29°46' W 095°06'0 0.0
2017-Oct-10 06:58N 29°46' W 095°06'0 0.0
2017-Oct-10 06:30N 29°46' W 095°06'0 0.0
2017-Oct-10 05:57N 29°46' W 095°06'0 0.0
2017-Oct-10 05:29N 29°46' W 095°06'2 0.5
2017-Oct-10 02:09N 29°45' W 095°06'1 6.0
2017-Oct-10 01:56N 29°44' W 095°08'3 5.9
2017-Oct-10 01:30N 29°45' W 095°11'1 2.0
2017-Oct-10 01:01N 29°45' W 095°12'1 1.9
2017-Oct-10 00:30N 29°45' W 095°11'3 5.6
2017-Oct-10 00:00N 29°44' W 095°08'3 2.1
2017-Oct-09 22:31N 29°46' W 095°05'0 4.4
2017-Oct-09 22:26N 29°46' W 095°04'3 5.6
2017-Oct-09 22:00N 29°44' W 095°02'1 1.9
2017-Oct-09 21:29N 29°44' W 095°01'0 0.5
2017-Oct-09 20:58N 29°44' W 095°01'0 0.5
2017-Oct-09 20:27N 29°44' W 095°01'1 1.0
2017-Oct-09 19:53N 29°43' W 095°01'1 1.2
2017-Oct-09 19:22N 29°44' W 095°01'0 0.0
2017-Oct-09 18:56N 29°44' W 095°01'0 0.0
2017-Oct-09 12:46N 29°44' W 095°01'0 0.0
2017-Oct-09 12:27N 29°44' W 095°01'0 0.0
2017-Oct-09 09:36N 29°44' W 095°01'0 0.0
2017-Oct-09 08:52N 29°44' W 095°01'0 0.0
2017-Oct-09 08:22N 29°44' W 095°01'0 0.0
2017-Oct-09 07:31N 29°44' W 095°01'0 0.0
2017-Oct-09 07:26N 29°44' W 095°01'0 0.0
2017-Oct-09 01:31N 29°44' W 095°01'0 0.3
2017-Oct-09 01:30N 29°44' W 095°01'0 0.2
2017-Oct-09 00:39N 29°44' W 095°01'0 3.0
2017-Oct-09 00:30N 29°43' W 095°01'0 0.0
2017-Oct-08 23:38N 29°43' W 095°01'1 4.6
2017-Oct-08 23:20N 29°44' W 095°03'3 0.6
2017-Oct-08 17:56N 29°46' W 095°05'1 1.8
2017-Oct-08 17:12N 29°47' W 095°04'1 5.5
2017-Oct-08 17:00N 29°46' W 095°05'3 5.9
2017-Oct-08 16:30N 29°44' W 095°02'1 1.6
2017-Oct-08 16:00N 29°44' W 095°01'0 0.0
2017-Oct-08 14:26N 29°44' W 095°01'0 0.0
2017-Oct-08 13:55N 29°44' W 095°01'  

Dump ship's entire track history